createdAt,value
2022-12-01T00:01:14.015Z,5.50
2022-12-01T00:03:40.982Z,5.50
2022-12-01T00:06:11.510Z,5.50
2022-12-01T00:08:38.636Z,5.60
2022-12-01T00:11:11.461Z,5.60
2022-12-01T00:13:38.294Z,5.60
2022-12-01T00:16:13.440Z,5.60
2022-12-01T00:18:40.363Z,5.60
2022-12-01T00:21:13.454Z,5.50
2022-12-01T00:23:53.160Z,5.50
2022-12-01T00:26:21.197Z,5.50
2022-12-01T00:28:56.220Z,5.50
2022-12-01T00:31:23.798Z,5.50
2022-12-01T00:33:50.577Z,5.50
2022-12-01T00:36:17.807Z,5.50
2022-12-01T00:38:44.681Z,5.50
2022-12-01T00:41:11.549Z,5.50
2022-12-01T00:43:38.391Z,5.50
2022-12-01T00:46:05.456Z,5.60
2022-12-01T00:48:32.125Z,5.60
2022-12-01T00:50:59.328Z,5.60
2022-12-01T00:53:26.015Z,5.60
2022-12-01T00:55:55.813Z,5.60
2022-12-01T00:58:23.451Z,5.60
2022-12-01T01:00:58.003Z,5.60
2022-12-01T01:03:25.477Z,5.60
2022-12-01T01:05:52.232Z,5.60
2022-12-01T01:08:21.561Z,5.60
2022-12-01T01:10:48.926Z,5.60
2022-12-01T01:13:16.026Z,5.60
2022-12-01T01:15:42.890Z,5.60
2022-12-01T01:18:11.794Z,5.60
2022-12-01T01:20:38.792Z,5.60
2022-12-01T01:23:05.666Z,5.70
2022-12-01T01:25:33.216Z,5.70
2022-12-01T01:28:00.127Z,5.70
2022-12-01T01:30:27.259Z,5.70
2022-12-01T01:32:54.162Z,5.60
2022-12-01T01:35:21.283Z,5.70
2022-12-01T01:37:48.057Z,5.70
2022-12-01T01:40:14.829Z,5.70
2022-12-01T01:42:41.634Z,5.70
2022-12-01T01:45:22.380Z,5.70
2022-12-01T01:47:51.717Z,5.70
2022-12-01T01:50:21.383Z,5.70
2022-12-01T01:53:01.004Z,5.70
2022-12-01T01:55:29.288Z,5.70
2022-12-01T01:57:56.561Z,5.70
2022-12-01T02:00:23.445Z,5.70
2022-12-01T02:02:51.438Z,5.70
2022-12-01T02:05:20.631Z,5.70
2022-12-01T02:07:48.927Z,5.70
2022-12-01T02:10:22.259Z,5.80
2022-12-01T02:12:58.710Z,5.70
2022-12-01T02:15:52.394Z,5.80
2022-12-01T02:18:29.151Z,5.80
2022-12-01T02:21:10.837Z,5.80
2022-12-01T02:23:59.345Z,5.80
2022-12-01T02:26:34.847Z,5.70
2022-12-01T02:29:40.895Z,5.80
2022-12-01T02:32:35.558Z,5.80
2022-12-01T02:35:11.015Z,5.70
2022-12-01T02:37:45.694Z,5.70
2022-12-01T02:40:24.920Z,5.70
2022-12-01T02:43:03.184Z,5.70
2022-12-01T02:45:45.527Z,5.70
2022-12-01T02:48:20.444Z,5.60
2022-12-01T02:50:47.990Z,5.70
2022-12-01T02:53:18.829Z,5.70
2022-12-01T02:55:54.055Z,5.70
2022-12-01T02:58:21.809Z,5.60
2022-12-01T03:01:30.422Z,5.60
2022-12-01T03:04:09.774Z,5.70
2022-12-01T03:06:49.625Z,5.60
2022-12-01T03:09:27.484Z,5.60
2022-12-01T03:12:32.912Z,5.60
2022-12-01T03:15:08.233Z,5.60
2022-12-01T03:17:49.189Z,5.60
2022-12-01T03:20:23.545Z,5.60
2022-12-01T03:22:59.974Z,5.60
2022-12-01T03:25:29.997Z,5.50
2022-12-01T03:28:20.850Z,5.60
2022-12-01T03:30:48.031Z,5.60
2022-12-01T03:33:23.991Z,5.60
2022-12-01T03:36:06.995Z,5.60
2022-12-01T03:38:36.356Z,5.60
2022-12-01T03:41:12.178Z,5.70
2022-12-01T03:43:42.427Z,5.70
2022-12-01T03:46:33.892Z,5.70
2022-12-01T03:49:01.862Z,5.70
2022-12-01T03:51:55.952Z,5.70
2022-12-01T03:54:55.412Z,5.70
2022-12-01T03:57:29.898Z,5.70
2022-12-01T03:59:56.806Z,5.70
2022-12-01T04:02:27.636Z,5.70
2022-12-01T04:04:54.574Z,5.70
2022-12-01T04:07:22.779Z,5.60
2022-12-01T04:09:50.007Z,5.70
2022-12-01T04:12:35.053Z,5.70
2022-12-01T04:15:11.212Z,5.70
2022-12-01T04:17:45.117Z,5.70
2022-12-01T04:20:15.811Z,5.70
2022-12-01T04:22:42.592Z,5.70
2022-12-01T04:25:10.033Z,5.80
2022-12-01T04:27:37.020Z,5.70
2022-12-01T04:30:05.642Z,5.70
2022-12-01T04:32:32.578Z,5.70
2022-12-01T04:34:59.190Z,5.60
2022-12-01T04:37:25.805Z,5.70
2022-12-01T04:39:52.718Z,5.60
2022-12-01T04:42:19.601Z,5.70
2022-12-01T04:44:46.623Z,5.60
2022-12-01T04:47:13.337Z,5.60
2022-12-01T04:49:40.404Z,5.60
2022-12-01T04:52:07.480Z,5.60
2022-12-01T04:54:34.500Z,5.60
2022-12-01T04:57:01.248Z,5.60
2022-12-01T04:59:27.951Z,5.60
2022-12-01T05:01:54.720Z,5.60
2022-12-01T05:04:21.461Z,5.60
2022-12-01T05:06:48.120Z,5.60
2022-12-01T05:09:17.683Z,5.60
2022-12-01T05:11:45.042Z,5.60
2022-12-01T05:14:11.814Z,5.60
2022-12-01T05:16:38.760Z,5.60
2022-12-01T05:19:25.146Z,5.60
2022-12-01T05:21:51.982Z,5.50
2022-12-01T05:24:20.590Z,5.50
2022-12-01T05:26:47.705Z,5.50
2022-12-01T05:29:14.909Z,5.50
2022-12-01T05:31:41.830Z,5.50
2022-12-01T05:34:09.046Z,5.50
2022-12-01T05:36:36.335Z,5.40
2022-12-01T05:39:03.935Z,5.40
2022-12-01T05:41:30.733Z,5.40
2022-12-01T05:43:57.497Z,5.40
2022-12-01T05:46:24.389Z,5.40
2022-12-01T05:48:51.170Z,5.40
2022-12-01T05:51:17.993Z,5.40
2022-12-01T05:53:45.178Z,5.40
2022-12-01T05:56:12.522Z,5.40
2022-12-01T05:58:39.297Z,5.40
2022-12-01T06:01:06.430Z,5.50
2022-12-01T06:03:33.249Z,5.50
2022-12-01T06:06:00.218Z,5.40
2022-12-01T06:08:27.055Z,5.40
2022-12-01T06:10:53.759Z,5.40
2022-12-01T06:13:20.520Z,5.40
2022-12-01T06:15:56.327Z,5.40
2022-12-01T06:18:23.623Z,5.40
2022-12-01T06:20:50.230Z,5.30
2022-12-01T06:23:16.966Z,5.30
2022-12-01T06:25:43.888Z,5.30
2022-12-01T06:28:10.603Z,5.20
2022-12-01T06:30:37.446Z,5.20
2022-12-01T06:33:04.342Z,5.10
2022-12-01T06:35:31.169Z,5.10
2022-12-01T06:37:57.945Z,5.00
2022-12-01T06:40:24.806Z,5.00
2022-12-01T06:42:51.562Z,4.90
2022-12-01T06:45:18.735Z,4.80
2022-12-01T06:47:47.987Z,4.80
2022-12-01T06:50:14.744Z,4.80
2022-12-01T06:52:41.393Z,4.70
2022-12-01T06:55:08.514Z,4.70
2022-12-01T06:57:35.314Z,4.70
2022-12-01T07:00:03.758Z,4.60
2022-12-01T07:02:30.652Z,4.60
2022-12-01T07:04:57.416Z,4.60
2022-12-01T07:07:24.223Z,4.60
2022-12-01T07:09:51.218Z,4.50
2022-12-01T07:12:18.064Z,4.50
2022-12-01T07:14:45.510Z,4.40
2022-12-01T07:17:12.236Z,4.40
2022-12-01T07:19:39.057Z,4.40
2022-12-01T07:22:05.763Z,4.40
2022-12-01T07:24:32.493Z,4.40
2022-12-01T07:26:59.247Z,4.30
2022-12-01T07:29:26.070Z,4.30
2022-12-01T07:31:53.068Z,4.30
2022-12-01T07:34:20.080Z,4.20
2022-12-01T07:36:46.846Z,4.20
2022-12-01T07:39:13.622Z,4.20
2022-12-01T07:41:40.455Z,4.20
2022-12-01T07:44:09.197Z,4.20
2022-12-01T07:46:36.144Z,4.20
2022-12-01T07:49:06.021Z,4.20
2022-12-01T07:51:33.027Z,4.10
2022-12-01T07:54:03.627Z,4.10
2022-12-01T07:56:30.510Z,4.00
2022-12-01T07:58:57.318Z,4.00
2022-12-01T08:01:25.281Z,4.00
2022-12-01T08:03:55.502Z,4.00
2022-12-01T08:06:23.277Z,4.10
2022-12-01T08:08:50.304Z,4.10
2022-12-01T08:11:23.387Z,4.10
2022-12-01T08:13:51.413Z,4.20
2022-12-01T08:16:20.395Z,4.30
2022-12-01T08:18:47.409Z,4.30
2022-12-01T08:21:17.502Z,4.40
2022-12-01T08:23:44.817Z,4.40
2022-12-01T08:26:14.222Z,4.50
2022-12-01T08:28:41.915Z,4.60
2022-12-01T08:31:09.126Z,4.60
2022-12-01T08:33:35.997Z,4.60
2022-12-01T08:36:04.306Z,4.70
2022-12-01T08:38:31.302Z,4.80
2022-12-01T08:41:02.449Z,4.80
2022-12-01T08:43:55.846Z,4.90
2022-12-01T08:46:16.272Z,4.90
2022-12-01T08:48:43.217Z,4.90
2022-12-01T08:51:12.407Z,5.00
2022-12-01T08:53:45.432Z,5.10
2022-12-01T08:56:37.452Z,5.10
2022-12-01T08:59:04.495Z,5.20
2022-12-01T09:01:32.743Z,5.20
2022-12-01T09:04:10.520Z,5.20
2022-12-01T09:06:42.205Z,5.30
2022-12-01T09:09:10.949Z,5.30
2022-12-01T09:11:38.333Z,5.30
2022-12-01T09:14:05.270Z,5.30
2022-12-01T09:16:32.652Z,5.30
2022-12-01T09:18:59.466Z,5.40
2022-12-01T09:21:30.610Z,5.40
2022-12-01T09:23:57.803Z,5.40
2022-12-01T09:26:25.102Z,5.50
2022-12-01T09:28:57.613Z,5.60
2022-12-01T09:31:24.806Z,5.60
2022-12-01T09:33:57.179Z,5.60
2022-12-01T09:36:24.708Z,5.60
2022-12-01T09:38:51.595Z,5.60
2022-12-01T09:41:23.289Z,5.70
2022-12-01T09:44:20.794Z,5.70
2022-12-01T09:46:55.912Z,5.70
2022-12-01T09:49:26.147Z,5.70
2022-12-01T09:51:54.528Z,5.80
2022-12-01T09:54:21.803Z,5.80
2022-12-01T09:56:53.007Z,5.80
2022-12-01T09:59:35.431Z,5.80
2022-12-01T10:02:06.549Z,5.90
2022-12-01T10:04:44.041Z,5.90
2022-12-01T10:07:21.621Z,6.00
2022-12-01T10:10:07.998Z,6.10
2022-12-01T10:12:36.441Z,6.10
2022-12-01T10:15:26.320Z,6.10
2022-12-01T10:18:14.342Z,6.20
2022-12-01T10:20:52.240Z,6.30
2022-12-01T10:23:36.071Z,6.30
2022-12-01T10:26:16.144Z,6.40
2022-12-01T10:28:48.517Z,6.50
2022-12-01T10:31:21.350Z,6.50
2022-12-01T10:33:57.422Z,6.50
2022-12-01T10:36:25.080Z,6.50
2022-12-01T10:38:51.801Z,6.40
2022-12-01T10:41:20.318Z,6.40
2022-12-01T10:43:54.077Z,6.30
2022-12-01T10:46:41.884Z,6.30
2022-12-01T10:49:14.357Z,6.30
2022-12-01T10:51:51.058Z,6.30
2022-12-01T10:54:18.959Z,6.40
2022-12-01T10:56:48.445Z,6.50
2022-12-01T10:59:32.335Z,6.50
2022-12-01T11:02:01.075Z,6.60
2022-12-01T11:04:45.445Z,6.60
2022-12-01T11:07:16.816Z,6.50
2022-12-01T11:09:46.613Z,6.50
2022-12-01T11:12:17.870Z,6.50
2022-12-01T11:14:45.987Z,6.50
2022-12-01T11:17:24.862Z,6.50
2022-12-01T11:19:52.106Z,6.60
2022-12-01T11:22:25.302Z,6.80
2022-12-01T11:25:05.761Z,7.00
2022-12-01T11:27:47.694Z,7.20
2022-12-01T11:30:26.133Z,7.00
2022-12-01T11:33:01.510Z,7.20
2022-12-01T11:35:32.134Z,7.70
2022-12-01T11:40:55.511Z,8.20
2022-12-01T11:43:35.467Z,8.60
2022-12-01T11:46:06.355Z,8.80
2022-12-01T11:48:35.356Z,9.20
2022-12-01T11:51:07.914Z,9.70
2022-12-01T11:53:37.792Z,10.10
2022-12-01T11:56:28.972Z,10.50
2022-12-01T11:59:04.842Z,10.60
2022-12-01T12:02:12.309Z,10.90
2022-12-01T12:04:58.374Z,11.00
2022-12-01T12:08:04.620Z,11.20
2022-12-01T12:10:56.188Z,11.70
2022-12-01T12:13:23.146Z,11.50
2022-12-01T12:16:27.528Z,11.50
2022-12-01T12:19:25.390Z,11.30
2022-12-01T12:22:41.737Z,11.60
2022-12-01T12:25:42.588Z,11.60
2022-12-01T12:28:31.117Z,11.90
2022-12-01T12:31:11.606Z,11.90
2022-12-01T12:33:53.086Z,11.90
2022-12-01T12:36:58.339Z,12.00
2022-12-01T12:39:43.798Z,11.80
2022-12-01T12:42:27.845Z,11.00
2022-12-01T12:45:04.553Z,10.40
2022-12-01T12:47:40.761Z,10.20
2022-12-01T12:50:20.595Z,10.00
2022-12-01T12:52:51.397Z,9.80
2022-12-01T12:55:38.879Z,9.60
2022-12-01T12:58:24.216Z,9.50
2022-12-01T13:01:03.384Z,9.60
2022-12-01T13:03:41.871Z,10.00
2022-12-01T13:06:34.383Z,10.60
2022-12-01T13:09:04.309Z,11.10
2022-12-01T13:11:41.802Z,11.10
2022-12-01T13:14:20.016Z,10.40
2022-12-01T13:16:49.471Z,10.10
2022-12-01T13:19:38.965Z,9.70
2022-12-01T13:22:07.837Z,9.70
2022-12-01T13:24:34.691Z,9.50
2022-12-01T13:27:14.088Z,9.50
2022-12-01T13:29:47.472Z,9.70
2022-12-01T13:32:43.813Z,9.70
2022-12-01T13:36:21.271Z,9.60
2022-12-01T13:38:40.467Z,9.40
2022-12-01T13:41:11.225Z,9.40
2022-12-01T13:43:49.255Z,9.20
2022-12-01T13:46:25.470Z,9.00
2022-12-01T13:48:57.709Z,8.90
2022-12-01T13:51:26.017Z,8.80
2022-12-01T13:54:05.385Z,8.70
2022-12-01T13:57:05.002Z,8.60
2022-12-01T13:59:41.051Z,8.60
2022-12-01T14:02:21.488Z,8.50
2022-12-01T14:04:48.944Z,8.40
2022-12-01T14:07:21.565Z,8.30
2022-12-01T14:09:51.898Z,8.30
2022-12-01T14:12:30.124Z,8.30
2022-12-01T14:15:01.200Z,8.20
2022-12-01T14:17:37.687Z,8.10
2022-12-01T14:20:20.539Z,8.00
2022-12-01T14:22:50.251Z,7.90
2022-12-01T14:25:19.839Z,7.80
2022-12-01T14:27:52.094Z,7.90
2022-12-01T14:30:51.708Z,7.80
2022-12-01T14:33:42.856Z,7.70
2022-12-01T14:36:28.528Z,7.70
2022-12-01T14:38:58.194Z,7.60
2022-12-01T14:41:32.308Z,7.50
2022-12-01T14:44:10.719Z,7.40
2022-12-01T14:46:45.949Z,7.30
2022-12-01T14:49:24.116Z,7.30
2022-12-01T14:51:57.733Z,7.30
2022-12-01T14:54:30.023Z,7.20
2022-12-01T14:57:06.270Z,7.20
2022-12-01T14:59:34.941Z,7.10
2022-12-01T15:02:09.504Z,7.10
2022-12-01T15:05:11.139Z,7.10
2022-12-01T15:07:43.716Z,7.00
2022-12-01T15:10:18.033Z,7.00
2022-12-01T15:12:45.476Z,6.90
2022-12-01T15:15:23.921Z,6.90
2022-12-01T15:17:53.126Z,6.90
2022-12-01T15:20:34.745Z,6.90
2022-12-01T15:23:08.045Z,6.80
2022-12-01T15:25:36.997Z,6.70
2022-12-01T15:28:10.419Z,6.80
2022-12-01T15:30:37.395Z,6.70
2022-12-01T15:33:05.479Z,6.70
2022-12-01T15:35:32.717Z,6.60
2022-12-01T15:38:01.088Z,6.60
2022-12-01T15:43:35.071Z,6.40
2022-12-01T15:46:11.482Z,6.40
2022-12-01T15:48:38.453Z,6.30
2022-12-01T15:51:17.047Z,6.30
2022-12-01T15:53:55.490Z,6.20
2022-12-01T15:56:52.345Z,6.10
2022-12-01T15:59:40.553Z,6.10
2022-12-01T16:02:32.307Z,6.00
2022-12-01T16:05:20.281Z,6.00
2022-12-01T16:08:12.771Z,5.90
2022-12-01T16:10:36.474Z,5.80
2022-12-01T16:13:40.729Z,5.80
2022-12-01T16:16:47.067Z,5.80
2022-12-01T16:19:16.479Z,5.70
2022-12-01T16:21:50.521Z,5.60
2022-12-01T16:24:19.532Z,5.60
2022-12-01T16:26:57.163Z,5.60
2022-12-01T16:29:26.273Z,5.60
2022-12-01T16:34:47.699Z,5.60
2022-12-01T16:37:15.243Z,5.50
2022-12-01T16:39:42.343Z,5.50
2022-12-01T16:42:17.242Z,5.50
2022-12-01T16:44:48.085Z,5.50
2022-12-01T16:47:33.301Z,5.50
2022-12-01T16:50:00.070Z,5.60
2022-12-01T16:52:44.620Z,5.60
2022-12-01T16:55:33.114Z,5.50
2022-12-01T16:57:59.782Z,5.50
2022-12-01T17:00:27.369Z,5.50
2022-12-01T17:02:54.364Z,5.50
2022-12-01T17:05:21.558Z,5.50
2022-12-01T17:07:48.567Z,5.40
2022-12-01T17:10:16.034Z,5.40
2022-12-01T17:12:42.865Z,5.40
2022-12-01T17:15:10.528Z,5.40
2022-12-01T17:17:37.537Z,5.40
2022-12-01T17:20:05.914Z,5.30
2022-12-01T17:22:33.139Z,5.30
2022-12-01T17:25:02.368Z,5.30
2022-12-01T17:27:31.570Z,5.30
2022-12-01T17:29:59.807Z,5.20
2022-12-01T17:32:27.436Z,5.20
2022-12-01T17:34:54.440Z,5.20
2022-12-01T17:37:21.845Z,5.20
2022-12-01T17:39:49.326Z,5.10
2022-12-01T17:42:16.454Z,5.10
2022-12-01T17:44:43.159Z,5.00
2022-12-01T17:47:10.108Z,5.00
2022-12-01T17:49:37.109Z,4.90
2022-12-01T17:52:05.266Z,4.90
2022-12-01T17:54:32.161Z,4.90
2022-12-01T17:56:59.031Z,4.70
2022-12-01T17:59:26.272Z,4.70
2022-12-01T18:01:53.166Z,4.70
2022-12-01T18:04:19.825Z,4.70
2022-12-01T18:06:52.307Z,4.70
2022-12-01T18:09:20.683Z,4.60
2022-12-01T18:11:47.568Z,4.60
2022-12-01T18:14:17.666Z,4.60
2022-12-01T18:16:45.055Z,4.60
2022-12-01T18:19:11.924Z,4.60
2022-12-01T18:21:39.278Z,4.60
2022-12-01T18:24:08.753Z,4.60
2022-12-01T18:26:36.874Z,4.60
2022-12-01T18:29:06.654Z,4.50
2022-12-01T18:31:34.021Z,4.50
2022-12-01T18:34:03.056Z,4.50
2022-12-01T18:36:32.010Z,4.50
2022-12-01T18:39:00.319Z,4.50
2022-12-01T18:41:27.483Z,4.50
2022-12-01T18:43:54.606Z,4.50
2022-12-01T18:46:22.323Z,4.50
2022-12-01T18:48:59.351Z,4.40
2022-12-01T18:51:26.293Z,4.40
2022-12-01T18:54:01.134Z,4.40
2022-12-01T18:56:29.388Z,4.40
2022-12-01T18:58:58.001Z,4.40
2022-12-01T19:01:27.771Z,4.40
2022-12-01T19:03:55.794Z,4.40
2022-12-01T19:06:23.311Z,4.30
2022-12-01T19:08:50.370Z,4.40
2022-12-01T19:11:17.596Z,4.40
2022-12-01T19:13:44.992Z,4.40
2022-12-01T19:16:17.815Z,4.40
2022-12-01T19:18:45.193Z,4.40
2022-12-01T19:21:14.459Z,4.50
2022-12-01T19:23:41.202Z,4.50
2022-12-01T19:26:11.914Z,4.50
2022-12-01T19:28:42.046Z,4.50
2022-12-01T19:31:11.212Z,4.50
2022-12-01T19:33:38.489Z,4.50
2022-12-01T19:36:11.422Z,4.50
2022-12-01T19:38:38.678Z,4.50
2022-12-01T19:41:06.238Z,4.50
2022-12-01T19:43:37.497Z,4.60
2022-12-01T19:46:15.455Z,4.60
2022-12-01T19:48:42.843Z,4.60
2022-12-01T19:51:21.460Z,4.60
2022-12-01T19:53:48.763Z,4.50
2022-12-01T19:56:15.845Z,4.60
2022-12-01T19:58:42.914Z,4.60
2022-12-01T20:01:12.218Z,4.60
2022-12-01T20:03:40.634Z,4.70
2022-12-01T20:06:13.206Z,4.70
2022-12-01T20:08:40.297Z,4.80
2022-12-01T20:11:07.906Z,4.80
2022-12-01T20:13:36.522Z,4.80
2022-12-01T20:16:09.705Z,4.80
2022-12-01T20:18:37.510Z,4.80
2022-12-01T20:21:16.719Z,4.80
2022-12-01T20:23:45.005Z,4.80
2022-12-01T20:26:12.822Z,4.80
2022-12-01T20:28:40.533Z,4.80
2022-12-01T20:31:14.620Z,4.80
2022-12-01T20:33:42.342Z,4.80
2022-12-01T20:36:09.887Z,4.80
2022-12-01T20:38:37.294Z,4.80
2022-12-01T20:41:05.523Z,4.80
2022-12-01T20:43:32.872Z,4.80
2022-12-01T20:46:00.364Z,4.80
2022-12-01T20:48:27.716Z,4.80
2022-12-01T20:50:54.511Z,4.80
2022-12-01T20:53:21.620Z,4.80
2022-12-01T20:55:49.261Z,4.80
2022-12-01T20:58:15.934Z,4.80
2022-12-01T21:00:46.770Z,4.80
2022-12-01T21:03:14.348Z,4.80
2022-12-01T21:05:43.242Z,4.80
2022-12-01T21:08:13.071Z,4.80
2022-12-01T21:10:43.702Z,4.80
2022-12-01T21:13:41.087Z,4.90
2022-12-01T21:16:16.626Z,4.90
2022-12-01T21:18:52.158Z,4.90
2022-12-01T21:21:24.777Z,4.90
2022-12-01T21:24:09.714Z,4.80
2022-12-01T21:26:38.719Z,4.90
2022-12-01T21:29:25.529Z,4.90
2022-12-01T21:32:02.958Z,4.90
2022-12-01T21:34:33.452Z,4.90
2022-12-01T21:37:02.402Z,4.90
2022-12-01T21:39:30.138Z,4.90
2022-12-01T21:42:06.426Z,4.90
2022-12-01T21:44:37.412Z,4.90
2022-12-01T21:47:17.289Z,4.80
2022-12-01T21:49:46.998Z,4.80
2022-12-01T21:52:29.942Z,4.80
2022-12-01T21:55:02.181Z,4.80
2022-12-01T21:57:52.342Z,4.80
2022-12-01T22:00:34.887Z,4.80
2022-12-01T22:03:27.324Z,4.90
2022-12-01T22:06:28.748Z,4.90
2022-12-01T22:08:55.227Z,4.90
2022-12-01T22:11:25.836Z,4.90
2022-12-01T22:14:00.699Z,4.90
2022-12-01T22:16:32.490Z,4.90
2022-12-01T22:19:02.169Z,4.90
2022-12-01T22:21:46.831Z,4.90
2022-12-01T22:24:50.128Z,5.00
2022-12-01T22:27:28.732Z,5.00
2022-12-01T22:30:07.360Z,4.90
2022-12-01T22:32:35.880Z,4.90
2022-12-01T22:35:14.537Z,4.90
2022-12-01T22:37:46.546Z,4.90
2022-12-01T22:40:34.521Z,4.90
2022-12-01T22:43:29.301Z,4.90
2022-12-01T22:46:20.466Z,4.90
2022-12-01T22:49:03.992Z,4.90
2022-12-01T22:51:45.711Z,4.80
2022-12-01T22:54:14.587Z,4.90
2022-12-01T22:56:56.419Z,4.80
2022-12-01T22:59:28.294Z,4.90
2022-12-01T23:01:57.509Z,4.80
2022-12-01T23:04:27.282Z,4.90
2022-12-01T23:07:01.891Z,4.90
2022-12-01T23:09:34.220Z,4.90
2022-12-01T23:12:10.051Z,4.90
2022-12-01T23:14:44.350Z,4.90
2022-12-01T23:17:19.428Z,4.90
2022-12-01T23:19:46.582Z,4.90
2022-12-01T23:22:15.291Z,4.90
2022-12-01T23:24:41.978Z,4.90
2022-12-01T23:27:08.639Z,4.90
2022-12-01T23:29:36.217Z,4.90
2022-12-01T23:32:03.014Z,5.00
2022-12-01T23:34:30.152Z,5.00
2022-12-01T23:36:57.442Z,5.00
2022-12-01T23:39:32.242Z,5.00
2022-12-01T23:41:59.625Z,5.00
2022-12-01T23:44:49.648Z,5.00
2022-12-01T23:47:24.644Z,5.00
2022-12-01T23:49:59.423Z,4.90
2022-12-01T23:52:32.137Z,4.90
2022-12-01T23:54:58.884Z,4.90
2022-12-01T23:57:25.782Z,4.90
2022-12-01T23:59:56.579Z,4.90
